Time;durP1;ratioP1;P1;durP2;ratioP2;P2;SDS_P1;SDS_P2;PMS_P1;PMS_P2;Temp;Humidity;BMP_temperature;BMP_pressure;BME280_temperature;BME280_humidity;BME280_pressure;Samples;Min_cycle;Max_cycle;Signal;HPM_P1;HPM_P2
2023/08/23 00:00:46;;;;;;;6.63;5.47;;;20.80;99.90;;;;;;2063734;28;20305;-83
2023/08/23 00:01:47;;;;;;;7.13;5.90;;;20.80;99.90;;;;;;2070699;28;20236;-83
2023/08/23 00:02:48;;;;;;;9.10;5.83;;;20.90;99.90;;;;;;2065689;28;20317;-82
2023/08/23 00:03:48;;;;;;;6.20;5.60;;;20.90;99.90;;;;;;2077350;28;20241;-82
2023/08/23 00:04:50;;;;;;;9.57;5.63;;;20.90;99.90;;;;;;2078218;28;20264;-83
2023/08/23 00:05:51;;;;;;;7.00;6.07;;;20.90;99.90;;;;;;2078266;28;20242;-83
2023/08/23 00:06:51;;;;;;;6.43;5.53;;;20.90;99.90;;;;;;2065565;28;20472;-84
2023/08/23 00:07:52;;;;;;;6.17;5.57;;;21.00;99.90;;;;;;2049246;28;20231;-83
2023/08/23 00:08:53;;;;;;;8.57;6.00;;;21.00;99.90;;;;;;2065561;28;20271;-84
2023/08/23 00:09:54;;;;;;;6.20;5.60;;;21.00;99.90;;;;;;2069551;28;20458;-83
2023/08/23 00:10:55;;;;;;;8.23;6.13;;;20.90;99.90;;;;;;2071712;28;20221;-83
2023/08/23 00:11:56;;;;;;;6.50;5.90;;;21.00;99.90;;;;;;2072095;28;20252;-83
2023/08/23 00:12:57;;;;;;;6.97;5.80;;;20.90;99.90;;;;;;2072521;28;20835;-83
2023/08/23 00:13:58;;;;;;;6.00;5.37;;;20.90;99.90;;;;;;2072661;28;20303;-83
2023/08/23 00:14:59;;;;;;;7.63;6.00;;;20.90;99.90;;;;;;2071692;28;20248;-83
2023/08/23 00:16:00;;;;;;;7.37;5.50;;;20.80;99.90;;;;;;2072384;28;20237;-83
2023/08/23 00:17:01;;;;;;;7.23;5.40;;;20.80;99.90;;;;;;2056156;28;20556;-82
2023/08/23 00:18:01;;;;;;;6.80;5.60;;;20.80;99.90;;;;;;2051290;28;20761;-82
2023/08/23 00:19:03;;;;;;;7.77;5.77;;;20.80;99.90;;;;;;2060733;28;20258;-83
2023/08/23 00:20:04;;;;;;;8.17;6.10;;;20.80;99.90;;;;;;2060466;28;20191;-82
2023/08/23 00:21:05;;;;;;;8.03;5.53;;;20.80;99.90;;;;;;2054378;28;20845;-83
2023/08/23 00:22:06;;;;;;;6.17;5.57;;;20.70;99.90;;;;;;2056491;28;20885;-83
2023/08/23 00:23:08;;;;;;;6.53;5.13;;;20.70;99.90;;;;;;2069465;28;20435;-82
2023/08/23 00:24:08;;;;;;;5.83;5.23;;;20.70;99.90;;;;;;2077261;28;20284;-84
2023/08/23 00:25:09;;;;;;;8.33;5.50;;;20.70;99.90;;;;;;2072723;28;20434;-83
2023/08/23 00:26:13;;;;;;;6.63;5.80;;;20.70;99.90;;;;;;2064559;28;20222;-82
2023/08/23 00:27:13;;;;;;;7.70;5.73;;;20.70;99.90;;;;;;2061231;28;20207;-83
2023/08/23 00:28:19;;;;;;;6.63;5.73;;;20.80;99.90;;;;;;2061117;28;21057;-84
2023/08/23 00:29:19;;;;;;;5.93;5.33;;;20.80;99.90;;;;;;2071077;28;20180;-83
2023/08/23 00:30:20;;;;;;;7.77;5.90;;;20.70;99.90;;;;;;2072784;28;20431;-83
2023/08/23 00:31:21;;;;;;;6.43;5.70;;;20.60;99.90;;;;;;2072683;28;20225;-82
2023/08/23 00:32:21;;;;;;;8.33;6.10;;;20.60;99.90;;;;;;2071313;28;20245;-82
2023/08/23 00:33:22;;;;;;;6.50;5.80;;;20.60;99.90;;;;;;2071293;28;20603;-84
2023/08/23 00:34:23;;;;;;;7.40;5.63;;;20.60;99.90;;;;;;2071032;28;20368;-83
2023/08/23 00:35:24;;;;;;;6.87;5.43;;;20.50;99.90;;;;;;2070502;28;20604;-83
2023/08/23 00:36:24;;;;;;;7.13;5.90;;;20.60;99.90;;;;;;2070477;28;20245;-83
2023/08/23 00:37:25;;;;;;;6.87;5.93;;;20.60;99.90;;;;;;2056756;28;20254;-83
2023/08/23 00:38:26;;;;;;;6.63;6.03;;;20.60;99.90;;;;;;2071187;28;20694;-83
2023/08/23 00:39:27;;;;;;;7.10;5.90;;;20.50;99.90;;;;;;2071887;28;20292;-82
2023/08/23 00:40:28;;;;;;;6.93;5.97;;;20.50;99.90;;;;;;2064562;28;20226;-82
2023/08/23 00:41:29;;;;;;;8.50;6.10;;;20.60;99.90;;;;;;2052326;28;20318;-82
2023/08/23 00:42:30;;;;;;;8.10;6.00;;;20.50;99.90;;;;;;2067239;28;20476;-81
2023/08/23 00:43:30;;;;;;;7.90;5.77;;;20.50;99.90;;;;;;2071261;28;20225;-82
2023/08/23 00:44:31;;;;;;;7.93;6.20;;;20.30;99.90;;;;;;2071847;28;20278;-82
2023/08/23 00:45:35;;;;;;;9.70;6.43;;;20.30;99.90;;;;;;2070088;28;20662;-82
2023/08/23 00:46:36;;;;;;;7.20;6.20;;;20.20;99.90;;;;;;2071026;28;20227;-82
2023/08/23 00:47:37;;;;;;;7.67;5.80;;;20.30;99.90;;;;;;2063907;28;20859;-83
2023/08/23 00:48:38;;;;;;;6.60;5.90;;;20.20;99.90;;;;;;2063568;28;20230;-82
2023/08/23 00:49:39;;;;;;;6.87;6.17;;;20.20;99.90;;;;;;2072015;28;20221;-82
2023/08/23 00:50:41;;;;;;;6.43;5.53;;;20.20;99.90;;;;;;2070953;28;21051;-83
2023/08/23 00:51:42;;;;;;;6.13;5.53;;;20.20;99.90;;;;;;2072111;28;20228;-82
2023/08/23 00:52:43;;;;;;;5.93;5.33;;;20.20;99.90;;;;;;2063729;28;20476;-82
2023/08/23 00:53:44;;;;;;;7.80;5.67;;;20.30;99.90;;;;;;2060358;28;20282;-82
2023/08/23 00:54:46;;;;;;;7.53;5.83;;;20.30;99.90;;;;;;2055958;28;20239;-82
2023/08/23 00:55:46;;;;;;;6.80;6.10;;;20.30;99.90;;;;;;2047590;28;20477;-83
2023/08/23 00:56:48;;;;;;;7.23;5.50;;;20.30;99.90;;;;;;2056176;28;20472;-84
2023/08/23 00:57:53;;;;;;;6.47;5.77;;;20.30;99.90;;;;;;2064040;28;20230;-81
2023/08/23 00:58:53;;;;;;;7.50;6.10;;;20.30;99.90;;;;;;2055033;28;20466;-82
2023/08/23 00:59:54;;;;;;;6.80;6.10;;;20.30;99.90;;;;;;2055775;28;20469;-83
2023/08/23 01:00:56;;;;;;;10.30;6.50;;;20.30;99.90;;;;;;2055850;28;20270;-83
2023/08/23 01:01:57;;;;;;;6.27;5.67;;;20.30;99.90;;;;;;2055504;28;20219;-84
2023/08/23 01:02:59;;;;;;;6.70;6.10;;;20.30;99.90;;;;;;2055354;28;20499;-83
2023/08/23 01:03:59;;;;;;;7.30;6.10;;;20.30;99.90;;;;;;2054626;28;21342;-82
2023/08/23 01:05:00;;;;;;;7.67;6.07;;;20.30;99.90;;;;;;2054798;28;20536;-82
2023/08/23 01:06:29;;;;;;;7.13;5.50;;;20.30;99.90;;;;;;2047410;28;20776;-82
2023/08/23 01:08:08;;;;;;;7.83;5.30;;;20.20;99.90;;;;;;2069113;28;20310;-83
2023/08/23 01:09:16;;;;;;;6.20;5.60;;;20.00;99.90;;;;;;2066803;28;20546;-83
2023/08/23 01:10:34;;;;;;;7.50;5.87;;;20.00;99.90;;;;;;2063140;28;20467;-82
2023/08/23 01:11:54;;;;;;;7.77;5.83;;;20.10;99.90;;;;;;2065537;28;20474;-82
2023/08/23 01:13:12;;;;;;;6.60;5.93;;;20.00;99.90;;;;;;2056506;28;20479;-82
2023/08/23 01:14:43;;;;;;;6.53;5.77;;;20.10;99.90;;;;;;2058342;28;20476;-83
2023/08/23 01:15:44;;;;;;;7.73;5.97;;;20.10;99.90;;;;;;2065572;28;20473;-82
2023/08/23 01:16:50;;;;;;;6.37;5.77;;;20.10;99.90;;;;;;2063011;28;21078;-83
2023/08/23 01:17:50;;;;;;;7.00;5.87;;;20.10;99.90;;;;;;2058780;28;20487;-83
2023/08/23 01:18:55;;;;;;;7.00;6.07;;;20.10;99.90;;;;;;2058671;28;20703;-81
2023/08/23 01:19:57;;;;;;;8.37;6.20;;;20.20;99.90;;;;;;2077086;28;20296;-81
2023/08/23 01:21:01;;;;;;;6.80;6.10;;;20.20;99.90;;;;;;2086497;28;20582;-82
2023/08/23 01:22:05;;;;;;;8.37;6.30;;;20.20;99.90;;;;;;2081384;28;20469;-82
2023/08/23 01:23:18;;;;;;;8.10;6.37;;;20.10;99.90;;;;;;2069125;28;20501;-82
2023/08/23 01:24:19;;;;;;;6.83;6.20;;;20.20;99.90;;;;;;2072770;28;20574;-84
2023/08/23 01:25:20;;;;;;;8.40;6.20;;;20.10;99.90;;;;;;2072327;28;20439;-83
2023/08/23 01:26:21;;;;;;;7.17;6.47;;;20.10;99.90;;;;;;2071972;28;20475;-84
2023/08/23 01:27:22;;;;;;;9.23;7.07;;;20.00;99.90;;;;;;2071526;28;20319;-83
2023/08/23 01:28:23;;;;;;;7.40;6.70;;;20.00;99.90;;;;;;2070955;28;20291;-84
2023/08/23 01:29:23;;;;;;;7.90;6.40;;;20.10;99.90;;;;;;2070668;28;20233;-83
2023/08/23 01:30:25;;;;;;;7.10;6.40;;;20.10;99.90;;;;;;2073144;28;20246;-83
2023/08/23 01:31:29;;;;;;;8.40;6.30;;;20.10;99.90;;;;;;2069010;28;20279;-82
2023/08/23 01:32:58;;;;;;;7.37;6.30;;;20.10;99.90;;;;;;2060688;28;20506;-83
2023/08/23 01:34:15;;;;;;;8.40;6.77;;;20.10;99.90;;;;;;2070393;28;20475;-82
2023/08/23 01:35:18;;;;;;;6.97;6.17;;;20.10;99.90;;;;;;2061128;28;20459;-83
2023/08/23 01:36:27;;;;;;;6.93;6.23;;;20.10;99.90;;;;;;2067198;28;20431;-83
2023/08/23 01:37:31;;;;;;;9.07;6.77;;;20.10;99.90;;;;;;2064199;28;20472;-83
2023/08/23 01:38:34;;;;;;;8.87;6.47;;;20.10;99.90;;;;;;2072532;28;20524;-84
2023/08/23 01:39:36;;;;;;;6.90;6.20;;;20.10;99.90;;;;;;2063537;28;20476;-81
2023/08/23 01:40:38;;;;;;;8.57;6.43;;;20.10;99.90;;;;;;2072118;28;20557;-84
2023/08/23 01:41:39;;;;;;;7.67;5.60;;;20.10;99.90;;;;;;2071778;28;20458;-83
2023/08/23 01:42:40;;;;;;;6.43;5.83;;;20.10;99.90;;;;;;2052297;28;20473;-85
2023/08/23 01:43:44;;;;;;;7.70;6.30;;;20.00;99.90;;;;;;2053162;28;20572;-84
2023/08/23 01:44:45;;;;;;;7.33;6.40;;;20.10;99.90;;;;;;2063150;28;20460;-85
2023/08/23 01:45:46;;;;;;;7.27;6.57;;;20.00;99.90;;;;;;2064249;28;20503;-83
2023/08/23 01:46:47;;;;;;;7.13;6.13;;;20.00;99.90;;;;;;2068009;28;20236;-82
2023/08/23 01:47:49;;;;;;;7.97;7.03;;;20.00;99.90;;;;;;2080145;28;20698;-84
2023/08/23 01:48:50;;;;;;;6.63;6.03;;;20.00;99.90;;;;;;2078069;28;20221;-82
2023/08/23 01:49:51;;;;;;;7.57;6.13;;;20.00;99.90;;;;;;2075205;28;20463;-84
2023/08/23 01:50:53;;;;;;;7.03;6.23;;;20.00;99.90;;;;;;2065810;28;20687;-84
2023/08/23 01:51:53;;;;;;;8.50;6.27;;;20.00;99.90;;;;;;2071102;28;20232;-83
2023/08/23 01:52:54;;;;;;;7.00;6.30;;;20.00;99.90;;;;;;2072003;28;20473;-84
2023/08/23 01:53:55;;;;;;;6.90;6.30;;;20.00;99.90;;;;;;2057438;28;20258;-83
2023/08/23 01:54:55;;;;;;;6.67;5.77;;;19.90;99.90;;;;;;2057463;28;20225;-84
2023/08/23 01:55:56;;;;;;;7.10;6.50;;;19.90;99.90;;;;;;2063844;28;20223;-84
2023/08/23 01:56:57;;;;;;;7.43;6.73;;;20.00;99.90;;;;;;2062827;28;20226;-84
2023/08/23 01:57:58;;;;;;;7.83;6.90;;;20.00;99.90;;;;;;2065704;28;20221;-83
2023/08/23 01:58:58;;;;;;;7.03;6.33;;;20.00;99.90;;;;;;2071692;28;20260;-82
2023/08/23 01:59:59;;;;;;;8.43;6.70;;;20.00;99.90;;;;;;2062771;28;20757;-83
2023/08/23 02:01:00;;;;;;;7.33;6.63;;;20.00;99.90;;;;;;2066109;28;20229;-83
2023/08/23 02:02:00;;;;;;;7.33;6.03;;;20.00;99.90;;;;;;2073386;28;20721;-82
2023/08/23 02:03:01;;;;;;;10.83;6.57;;;20.00;99.90;;;;;;2065627;28;20222;-83
2023/08/23 02:04:02;;;;;;;6.97;6.27;;;20.00;99.90;;;;;;2072234;28;20748;-83
2023/08/23 02:05:03;;;;;;;8.60;6.60;;;20.00;99.90;;;;;;2064252;28;20275;-83
2023/08/23 02:06:04;;;;;;;7.60;6.80;;;20.00;99.90;;;;;;2069260;28;20309;-82
2023/08/23 02:07:04;;;;;;;8.33;6.53;;;19.90;99.90;;;;;;2064532;28;20199;-82
2023/08/23 02:08:05;;;;;;;8.27;6.77;;;20.00;99.90;;;;;;2065137;28;20198;-83
2023/08/23 02:09:06;;;;;;;8.07;7.27;;;20.00;99.90;;;;;;2065534;28;20182;-82
2023/08/23 02:10:07;;;;;;;8.47;7.27;;;20.00;99.90;;;;;;2065717;28;20183;-82
2023/08/23 02:11:08;;;;;;;7.10;6.40;;;20.00;99.90;;;;;;2069237;28;20186;-82
2023/08/23 02:12:08;;;;;;;7.03;5.97;;;20.00;99.90;;;;;;2069246;28;20488;-81
2023/08/23 02:13:09;;;;;;;9.10;6.60;;;19.90;99.90;;;;;;2073742;28;20185;-82
2023/08/23 02:14:10;;;;;;;7.20;6.00;;;19.90;99.90;;;;;;2064627;28;20186;-83
2023/08/23 02:15:11;;;;;;;6.87;6.20;;;19.90;99.90;;;;;;2065121;28;20178;-82
2023/08/23 02:16:11;;;;;;;7.20;6.33;;;19.90;99.90;;;;;;2064713;28;20187;-82
2023/08/23 02:17:13;;;;;;;7.57;6.43;;;19.80;99.90;;;;;;2057167;28;20207;-82
2023/08/23 02:18:14;;;;;;;8.30;6.77;;;19.90;99.90;;;;;;2057375;28;20736;-82
2023/08/23 02:19:14;;;;;;;6.93;6.23;;;19.80;99.90;;;;;;2069436;28;20443;-84
2023/08/23 02:20:15;;;;;;;8.90;6.50;;;19.80;99.90;;;;;;2061125;28;20186;-82
2023/08/23 02:21:16;;;;;;;7.97;6.80;;;19.80;99.90;;;;;;2062883;28;20253;-82
2023/08/23 02:22:16;;;;;;;6.70;6.10;;;19.80;99.90;;;;;;2073211;28;20181;-83
2023/08/23 02:23:17;;;;;;;8.27;6.07;;;19.80;99.90;;;;;;2068567;28;20186;-83
2023/08/23 02:24:18;;;;;;;7.10;5.90;;;19.70;99.90;;;;;;2076484;28;20276;-83
2023/08/23 02:25:19;;;;;;;7.10;6.40;;;19.60;99.90;;;;;;2077215;28;20265;-82
2023/08/23 02:26:19;;;;;;;7.47;6.60;;;19.60;99.90;;;;;;2069369;28;20312;-81
2023/08/23 02:27:20;;;;;;;7.77;6.57;;;19.50;99.90;;;;;;2063899;28;20676;-82
2023/08/23 02:28:21;;;;;;;7.00;6.07;;;19.50;99.90;;;;;;2069140;28;21635;-82
2023/08/23 02:29:21;;;;;;;9.10;6.40;;;19.50;99.90;;;;;;2072733;28;20297;-83
2023/08/23 02:30:22;;;;;;;6.70;5.83;;;19.60;99.90;;;;;;2071990;28;20256;-83
2023/08/23 02:31:23;;;;;;;7.87;6.23;;;19.50;99.90;;;;;;2065692;28;20230;-82
2023/08/23 02:32:25;;;;;;;6.60;5.93;;;19.50;99.90;;;;;;2056257;28;20266;-82
2023/08/23 02:33:25;;;;;;;6.67;5.97;;;19.40;99.90;;;;;;2057808;28;20734;-83
2023/08/23 02:34:26;;;;;;;6.83;6.13;;;19.40;99.90;;;;;;2068663;28;20521;-82
2023/08/23 02:35:27;;;;;;;6.77;6.10;;;19.40;99.90;;;;;;2068384;28;20340;-83
2023/08/23 02:36:27;;;;;;;7.13;5.53;;;19.40;99.90;;;;;;2068183;28;20229;-84
2023/08/23 02:37:28;;;;;;;7.73;6.93;;;19.50;99.90;;;;;;2064022;28;20766;-84
2023/08/23 02:38:29;;;;;;;7.47;6.67;;;19.50;99.90;;;;;;2063932;28;20238;-83
2023/08/23 02:39:29;;;;;;;7.50;6.80;;;19.60;99.90;;;;;;2063379;28;20258;-83
2023/08/23 02:40:30;;;;;;;7.70;6.90;;;19.50;99.90;;;;;;2061942;28;20234;-84
2023/08/23 02:41:31;;;;;;;8.60;7.40;;;19.60;99.90;;;;;;2054233;28;20226;-84
2023/08/23 02:42:32;;;;;;;7.80;7.00;;;19.50;99.90;;;;;;2061174;28;20238;-83
2023/08/23 02:43:32;;;;;;;8.80;6.37;;;19.60;99.90;;;;;;2068769;28;20223;-84
2023/08/23 02:44:33;;;;;;;8.37;6.57;;;19.60;99.90;;;;;;2064683;28;20237;-84
2023/08/23 02:45:41;;;;;;;10.53;7.20;;;19.60;99.90;;;;;;2052393;28;20231;-81
2023/08/23 02:46:42;;;;;;;9.00;6.33;;;19.60;99.90;;;;;;2046926;28;20235;-83
2023/08/23 02:47:42;;;;;;;9.10;7.20;;;19.60;99.90;;;;;;2058209;28;20475;-82
2023/08/23 02:48:43;;;;;;;8.77;6.97;;;19.60;99.90;;;;;;2064056;28;20226;-83
2023/08/23 02:49:44;;;;;;;7.90;6.13;;;19.60;99.90;;;;;;2054016;28;20234;-82
2023/08/23 02:50:44;;;;;;;6.90;6.20;;;19.60;99.90;;;;;;2071062;28;20704;-82
2023/08/23 02:51:45;;;;;;;6.73;6.03;;;19.60;99.90;;;;;;2072479;28;20225;-83
2023/08/23 02:52:46;;;;;;;6.57;5.87;;;19.60;99.90;;;;;;2072480;28;20241;-82
2023/08/23 02:53:47;;;;;;;6.93;6.23;;;19.50;99.90;;;;;;2064272;28;20281;-82
2023/08/23 02:54:47;;;;;;;8.60;6.33;;;19.50;99.90;;;;;;2056214;28;20237;-82
2023/08/23 02:55:48;;;;;;;7.37;6.50;;;19.50;99.90;;;;;;2064103;28;20308;-83
2023/08/23 02:56:49;;;;;;;7.10;6.40;;;19.50;99.90;;;;;;2069233;28;20245;-82
2023/08/23 02:57:50;;;;;;;6.97;6.27;;;19.50;99.90;;;;;;2072374;28;20301;-81
2023/08/23 02:58:50;;;;;;;10.87;7.13;;;19.60;99.90;;;;;;2064299;28;20475;-83
2023/08/23 02:59:51;;;;;;;7.33;6.70;;;19.50;99.90;;;;;;2058884;28;20302;-81
2023/08/23 03:00:52;;;;;;;7.93;6.87;;;19.50;99.90;;;;;;2052916;28;20237;-84
2023/08/23 03:01:53;;;;;;;8.10;7.30;;;19.40;99.90;;;;;;2056848;28;20306;-84
2023/08/23 03:02:53;;;;;;;8.17;7.00;;;19.40;99.90;;;;;;2071563;28;20226;-83
2023/08/23 03:03:54;;;;;;;7.43;6.47;;;19.40;99.90;;;;;;2063361;28;20241;-83
2023/08/23 03:04:56;;;;;;;7.47;6.23;;;19.40;99.90;;;;;;2068409;28;20753;-82
2023/08/23 03:05:58;;;;;;;7.53;6.77;;;19.40;99.90;;;;;;2076173;28;20699;-82
2023/08/23 03:06:58;;;;;;;7.10;6.23;;;19.30;99.90;;;;;;2068481;28;20503;-84
2023/08/23 03:07:59;;;;;;;6.77;5.80;;;19.30;99.90;;;;;;2068711;28;20467;-83
2023/08/23 03:09:00;;;;;;;8.97;6.90;;;19.30;99.90;;;;;;2081131;28;20573;-82
2023/08/23 03:10:01;;;;;;;8.70;6.67;;;19.30;99.90;;;;;;2072908;28;20285;-83
2023/08/23 03:11:06;;;;;;;8.07;6.10;;;19.30;99.90;;;;;;2067809;28;20221;-84
2023/08/23 03:12:07;;;;;;;6.63;5.93;;;19.30;99.90;;;;;;2060581;28;20248;-84
2023/08/23 03:13:09;;;;;;;7.80;6.47;;;19.40;99.90;;;;;;2056656;28;21016;-83
2023/08/23 03:14:09;;;;;;;8.67;6.33;;;19.40;99.90;;;;;;2057284;28;20217;-82
2023/08/23 03:15:10;;;;;;;7.00;6.10;;;19.40;99.90;;;;;;2071857;28;20431;-82
2023/08/23 03:16:11;;;;;;;7.83;6.50;;;19.40;99.90;;;;;;2069985;28;20197;-83
2023/08/23 03:17:11;;;;;;;7.53;6.70;;;19.40;99.90;;;;;;2070750;28;20277;-83
2023/08/23 03:18:12;;;;;;;6.90;6.20;;;19.40;99.90;;;;;;2062687;28;20202;-82
2023/08/23 03:19:13;;;;;;;7.30;6.60;;;19.40;99.90;;;;;;2061612;28;20210;-82
2023/08/23 03:20:13;;;;;;;8.17;5.97;;;19.40;99.90;;;;;;2071252;28;20218;-82
2023/08/23 03:21:14;;;;;;;7.37;6.63;;;19.40;99.90;;;;;;2076747;28;20185;-81
2023/08/23 03:22:15;;;;;;;7.23;6.53;;;19.40;99.90;;;;;;2077027;28;20236;-83
2023/08/23 03:23:19;;;;;;;8.37;6.87;;;19.40;99.90;;;;;;2066362;28;20266;-84
2023/08/23 03:24:20;;;;;;;12.07;5.87;;;19.50;99.90;;;;;;2062095;28;20652;-83
2023/08/23 03:25:21;;;;;;;7.03;6.33;;;19.40;99.90;;;;;;2071972;28;20552;-83
2023/08/23 03:26:21;;;;;;;7.40;6.30;;;19.50;99.90;;;;;;2069164;28;20249;-83
2023/08/23 03:27:24;;;;;;;7.00;6.30;;;19.50;99.90;;;;;;2056643;28;20237;-84
2023/08/23 03:28:25;;;;;;;6.97;6.20;;;19.50;99.90;;;;;;2062729;28;20293;-84
2023/08/23 03:29:26;;;;;;;6.80;6.20;;;19.50;99.90;;;;;;2065406;28;20522;-82
2023/08/23 03:30:26;;;;;;;6.03;5.47;;;19.50;99.90;;;;;;2057371;28;20277;-83
2023/08/23 03:31:27;;;;;;;9.03;6.00;;;19.50;99.90;;;;;;2056173;28;20238;-84
2023/08/23 03:32:28;;;;;;;7.23;5.63;;;19.50;99.90;;;;;;2063098;28;20284;-84
2023/08/23 03:33:30;;;;;;;7.17;6.03;;;19.50;99.90;;;;;;2056558;28;20472;-83
2023/08/23 03:34:30;;;;;;;8.33;5.87;;;19.50;99.90;;;;;;2056957;28;20318;-84
2023/08/23 03:35:32;;;;;;;8.07;6.43;;;19.50;99.90;;;;;;2057636;28;21024;-83
2023/08/23 03:36:33;;;;;;;7.37;6.00;;;19.50;99.90;;;;;;2056550;28;20258;-84
2023/08/23 03:37:33;;;;;;;6.47;5.87;;;19.40;99.90;;;;;;2062276;28;20477;-84
2023/08/23 03:38:34;;;;;;;6.63;5.93;;;19.40;99.90;;;;;;2069789;28;20268;-83
2023/08/23 03:39:37;;;;;;;8.47;5.77;;;19.40;99.90;;;;;;2068485;28;20680;-84
2023/08/23 03:40:39;;;;;;;7.07;6.03;;;19.40;99.90;;;;;;2058130;28;20234;-84
2023/08/23 03:41:39;;;;;;;6.77;6.07;;;19.40;99.90;;;;;;2064090;28;20472;-83
2023/08/23 03:42:40;;;;;;;8.17;6.57;;;19.40;99.90;;;;;;2064181;28;20888;-82
2023/08/23 03:43:41;;;;;;;6.97;6.27;;;19.40;99.90;;;;;;2072974;28;20668;-83
2023/08/23 03:44:42;;;;;;;5.77;5.27;;;19.50;99.90;;;;;;2072083;28;20237;-84
2023/08/23 03:45:50;;;;;;;7.40;5.87;;;19.50;99.90;;;;;;2072477;28;20225;-83
2023/08/23 03:46:50;;;;;;;7.37;5.90;;;19.50;99.90;;;;;;2066392;28;20256;-83
2023/08/23 03:47:51;;;;;;;7.47;6.33;;;19.50;99.90;;;;;;2078347;28;20471;-84
2023/08/23 03:48:52;;;;;;;7.30;5.93;;;19.50;99.90;;;;;;2064320;28;20222;-83
2023/08/23 03:49:53;;;;;;;6.43;5.80;;;19.50;99.90;;;;;;2055934;28;20222;-84
2023/08/23 03:50:59;;;;;;;5.80;5.30;;;19.40;99.90;;;;;;2060530;28;21039;-83
2023/08/23 03:51:59;;;;;;;7.27;5.70;;;19.40;99.90;;;;;;2068985;28;20241;-83
2023/08/23 03:53:00;;;;;;;6.37;5.67;;;19.40;99.90;;;;;;2077322;28;20465;-84
2023/08/23 03:54:01;;;;;;;6.63;5.60;;;19.40;99.90;;;;;;2076197;28;20225;-84
2023/08/23 03:55:02;;;;;;;6.13;5.53;;;19.40;99.90;;;;;;2062534;28;20222;-83
2023/08/23 03:56:03;;;;;;;8.87;5.93;;;19.40;99.90;;;;;;2064688;28;20213;-83
2023/08/23 03:57:04;;;;;;;6.60;5.90;;;19.50;99.90;;;;;;2073475;28;20451;-83
2023/08/23 03:58:05;;;;;;;8.20;6.10;;;19.50;99.90;;;;;;2068284;28;20427;-83
2023/08/23 03:59:05;;;;;;;8.40;6.10;;;19.50;99.90;;;;;;2068847;28;20251;-83
2023/08/23 04:00:07;;;;;;;6.93;6.23;;;19.40;99.90;;;;;;2072848;28;20221;-83
2023/08/23 04:01:08;;;;;;;7.20;6.40;;;19.30;99.90;;;;;;2072833;28;20208;-84
2023/08/23 04:02:09;;;;;;;7.33;6.40;;;19.30;99.90;;;;;;2064203;28;20435;-82
2023/08/23 04:03:10;;;;;;;8.40;6.77;;;19.30;99.90;;;;;;2070721;28;20216;-82
2023/08/23 04:04:10;;;;;;;7.37;6.03;;;19.30;99.90;;;;;;2070142;28;20226;-82
2023/08/23 04:05:11;;;;;;;7.27;6.27;;;19.30;99.90;;;;;;2061505;28;20178;-82
2023/08/23 04:06:12;;;;;;;7.70;6.50;;;19.40;99.90;;;;;;2069556;28;20263;-82
2023/08/23 04:07:15;;;;;;;8.03;6.23;;;19.40;99.90;;;;;;2052753;28;20681;-81
2023/08/23 04:08:16;;;;;;;7.53;5.73;;;19.40;99.90;;;;;;2062479;28;20178;-82
2023/08/23 04:09:17;;;;;;;6.50;5.80;;;19.30;99.90;;;;;;2068682;28;20424;-81
2023/08/23 04:10:18;;;;;;;7.80;6.50;;;19.40;99.90;;;;;;2060949;28;20429;-82
2023/08/23 04:11:19;;;;;;;8.30;6.23;;;19.40;99.90;;;;;;2060589;28;20209;-81
2023/08/23 04:12:19;;;;;;;6.70;5.97;;;19.50;99.90;;;;;;2067755;28;20240;-83
2023/08/23 04:13:20;;;;;;;7.07;6.20;;;19.50;99.90;;;;;;2064327;28;20185;-83
2023/08/23 04:14:21;;;;;;;6.70;6.00;;;19.50;99.90;;;;;;2062983;28;20324;-81
2023/08/23 04:15:21;;;;;;;10.47;6.73;;;19.60;99.90;;;;;;2061035;28;20233;-82
2023/08/23 04:16:22;;;;;;;7.07;5.70;;;19.60;99.90;;;;;;2069926;28;20289;-81
2023/08/23 04:17:24;;;;;;;6.90;6.07;;;19.60;99.90;;;;;;2068012;28;20237;-81
2023/08/23 04:18:24;;;;;;;6.73;5.67;;;19.60;99.90;;;;;;2069263;28;20744;-82
2023/08/23 04:19:25;;;;;;;8.23;6.30;;;19.60;99.90;;;;;;2077853;28;20491;-81
2023/08/23 04:20:26;;;;;;;6.43;5.83;;;19.70;99.90;;;;;;2068720;28;20236;-82
2023/08/23 04:21:27;;;;;;;6.87;6.17;;;19.80;99.90;;;;;;2068660;28;20478;-80
2023/08/23 04:22:30;;;;;;;6.83;6.17;;;19.90;99.90;;;;;;2071216;28;20304;-82
2023/08/23 04:23:31;;;;;;;7.27;5.47;;;19.90;99.90;;;;;;2070309;28;20545;-81
2023/08/23 04:24:32;;;;;;;6.57;5.90;;;20.00;99.90;;;;;;2060143;28;20464;-81
2023/08/23 04:25:33;;;;;;;7.87;5.93;;;20.00;99.90;;;;;;2067368;28;20312;-83
2023/08/23 04:26:33;;;;;;;7.60;5.73;;;20.00;99.90;;;;;;2068708;28;20252;-81
2023/08/23 04:27:34;;;;;;;8.63;5.40;;;20.00;99.90;;;;;;2074842;28;20469;-82
2023/08/23 04:28:37;;;;;;;7.47;6.13;;;20.10;99.90;;;;;;2071484;28;20237;-82
2023/08/23 04:29:37;;;;;;;6.83;6.13;;;20.10;99.90;;;;;;2062524;28;20230;-80
2023/08/23 04:30:42;;;;;;;7.10;5.30;;;20.10;99.90;;;;;;2059953;28;21153;-83
2023/08/23 04:31:43;;;;;;;8.13;6.13;;;20.10;99.90;;;;;;2060848;28;20317;-82
2023/08/23 04:32:44;;;;;;;6.63;5.80;;;20.00;99.90;;;;;;2064737;28;20518;-82
2023/08/23 04:33:45;;;;;;;6.83;5.63;;;20.00;99.90;;;;;;2068198;28;20233;-82
2023/08/23 04:34:45;;;;;;;8.27;5.60;;;20.00;99.90;;;;;;2067816;28;20463;-81
2023/08/23 04:35:46;;;;;;;6.60;5.83;;;20.00;99.90;;;;;;2060823;28;20239;-81
2023/08/23 04:36:47;;;;;;;7.23;5.63;;;20.00;99.90;;;;;;2064039;28;20240;-81
2023/08/23 04:37:47;;;;;;;6.33;5.70;;;20.00;99.90;;;;;;2063495;28;20686;-82
2023/08/23 04:38:48;;;;;;;9.37;6.53;;;19.90;99.90;;;;;;2063667;28;20259;-82
2023/08/23 04:39:49;;;;;;;7.63;6.50;;;19.90;99.90;;;;;;2071864;28;20249;-81
2023/08/23 04:41:01;;;;;;;11.00;7.57;;;19.80;99.90;;;;;;2063271;28;20237;-81
2023/08/23 04:42:03;;;;;;;9.30;6.73;;;19.70;99.90;;;;;;2054682;28;20305;-83
2023/08/23 04:43:04;;;;;;;9.53;6.97;;;19.70;99.90;;;;;;2061741;28;20562;-83
2023/08/23 04:44:05;;;;;;;7.07;6.27;;;19.60;99.90;;;;;;2064043;28;20486;-84
2023/08/23 04:45:06;;;;;;;6.87;5.87;;;19.60;99.90;;;;;;2078411;28;20185;-82
2023/08/23 04:46:07;;;;;;;6.07;5.47;;;19.50;99.90;;;;;;2067564;28;20212;-83
2023/08/23 04:47:07;;;;;;;8.03;6.20;;;19.60;99.90;;;;;;2051217;28;20448;-82
2023/08/23 04:48:08;;;;;;;7.90;6.13;;;19.60;99.90;;;;;;2058528;28;20190;-82
2023/08/23 04:49:10;;;;;;;7.53;6.40;;;19.60;99.90;;;;;;2068016;28;20280;-82
2023/08/23 04:50:10;;;;;;;7.60;6.70;;;19.60;99.90;;;;;;2063399;28;20424;-81
2023/08/23 04:51:11;;;;;;;6.67;5.97;;;19.70;99.90;;;;;;2071237;28;20416;-83
2023/08/23 04:52:12;;;;;;;9.90;6.00;;;19.70;99.90;;;;;;2079042;28;20180;-83
2023/08/23 04:53:13;;;;;;;9.33;5.87;;;19.70;99.90;;;;;;2062460;28;20954;-83
2023/08/23 04:54:13;;;;;;;6.67;6.07;;;19.70;99.90;;;;;;2063558;28;20570;-82
2023/08/23 04:55:16;;;;;;;6.83;5.70;;;19.70;99.90;;;;;;2072271;28;20186;-82
2023/08/23 04:56:16;;;;;;;6.90;5.90;;;19.70;99.90;;;;;;2071811;28;20190;-83
2023/08/23 04:57:17;;;;;;;7.17;6.23;;;19.80;99.90;;;;;;2055385;28;20476;-82
2023/08/23 04:58:18;;;;;;;9.33;5.97;;;19.90;99.90;;;;;;2061366;28;20186;-82
2023/08/23 04:59:18;;;;;;;7.23;5.73;;;19.90;99.90;;;;;;2071390;28;20195;-82
2023/08/23 05:00:19;;;;;;;6.77;5.93;;;20.00;99.90;;;;;;2055424;28;20289;-81
2023/08/23 05:01:20;;;;;;;6.90;6.20;;;20.00;99.90;;;;;;2059989;28;20244;-82
2023/08/23 05:02:21;;;;;;;6.80;6.03;;;20.00;99.90;;;;;;2077834;28;20241;-82
2023/08/23 05:03:21;;;;;;;6.63;5.90;;;20.00;99.90;;;;;;2071065;28;20706;-82
2023/08/23 05:04:23;;;;;;;7.90;5.67;;;19.90;99.90;;;;;;2070589;28;20243;-83
2023/08/23 05:05:23;;;;;;;8.37;6.17;;;19.90;99.90;;;;;;2070743;28;20264;-83
2023/08/23 05:06:24;;;;;;;7.53;5.90;;;19.90;99.90;;;;;;2071051;28;20529;-82
2023/08/23 05:07:25;;;;;;;8.20;6.50;;;19.90;99.90;;;;;;2060088;28;20330;-83
2023/08/23 05:08:27;;;;;;;7.93;5.83;;;19.90;99.90;;;;;;2066234;28;20237;-83
2023/08/23 05:09:28;;;;;;;9.17;6.30;;;19.90;99.90;;;;;;2071185;28;20248;-83
2023/08/23 05:10:29;;;;;;;7.93;6.00;;;20.00;99.90;;;;;;2072286;28;20480;-82
2023/08/23 05:11:30;;;;;;;7.50;5.87;;;20.10;99.90;;;;;;2071410;28;20463;-83
2023/08/23 05:12:32;;;;;;;7.73;6.00;;;20.10;99.90;;;;;;2061827;28;20741;-83
2023/08/23 05:13:33;;;;;;;10.57;6.17;;;20.20;99.90;;;;;;2059249;28;20467;-84
2023/08/23 05:14:34;;;;;;;7.07;5.80;;;20.30;99.90;;;;;;2071982;28;20470;-83
2023/08/23 05:15:34;;;;;;;7.63;5.90;;;20.20;99.90;;;;;;2060479;28;20238;-84
2023/08/23 05:16:35;;;;;;;7.50;5.83;;;20.30;99.90;;;;;;2065065;28;20226;-82
2023/08/23 05:17:36;;;;;;;7.73;6.00;;;20.30;99.90;;;;;;2070841;28;20257;-82
2023/08/23 05:18:36;;;;;;;8.40;5.67;;;20.30;99.90;;;;;;2069323;28;20233;-83
2023/08/23 05:19:37;;;;;;;8.63;5.83;;;20.30;99.90;;;;;;2073885;28;20221;-84
2023/08/23 05:20:38;;;;;;;8.43;6.23;;;20.30;99.90;;;;;;2065450;28;20233;-82
2023/08/23 05:21:39;;;;;;;7.37;5.60;;;20.30;99.90;;;;;;2065560;28;20269;-83